SVA1650 OEJN-OEAB
Flight info
| Callsign | SVA1650 |
|---|---|
| Flight time | 0h 56m |
| Altitude | 23000 |
| Route | OEJN/34C RIBA2W RIBAM L677 ABKAR V38 ABH DCT OEAB/31 |
| Aircraft | A333/H-SDE3GHIJ2J3J5M1RVWXY/LB2D1 |
Departure
| Time | 2026-05-04 15:12 |
|---|---|
| Airport | King Abdulaziz International Airport (OEJN) |
Arrival
| Time | 2026-05-04 16:08 |
|---|---|
| Airport | Abha International Airport (OEAB) |
| Time | Latitude | Longitude | Altitude | Speed | Heading |
|---|---|---|---|---|---|
| 2026-05-04 14:37 | 21.67160 | 39.16986 | 36 ft | 0 kts | 157° |
| 2026-05-04 14:52 | 21.67172 | 39.16979 | 35 ft | 0 kts | 145° |
| 2026-05-04 14:58 | 21.67173 | 39.16979 | 36 ft | 1 kts | 145° |
| 2026-05-04 14:59 | 21.67193 | 39.16966 | 35 ft | 4 kts | 153° |
| 2026-05-04 14:59 | 21.67218 | 39.16956 | 34 ft | 4 kts | 174° |
| 2026-05-04 14:59 | 21.67259 | 39.16973 | 33 ft | 1 kts | 241° |
| 2026-05-04 15:05 | 21.67242 | 39.16935 | 36 ft | 10 kts | 246° |
| 2026-05-04 15:05 | 21.67219 | 39.16854 | 36 ft | 12 kts | 260° |
| 2026-05-04 15:05 | 21.67234 | 39.16795 | 36 ft | 5 kts | 311° |
| 2026-05-04 15:05 | 21.67270 | 39.16779 | 36 ft | 6 kts | 352° |
| 2026-05-04 15:06 | 21.67328 | 39.16774 | 36 ft | 10 kts | 355° |
| 2026-05-04 15:06 | 21.67401 | 39.16754 | 35 ft | 12 kts | 341° |
| 2026-05-04 15:06 | 21.67489 | 39.16719 | 35 ft | 15 kts | 339° |
| 2026-05-04 15:07 | 21.67653 | 39.16611 | 34 ft | 8 kts | 271° |
| 2026-05-04 15:07 | 21.67634 | 39.16553 | 34 ft | 10 kts | 249° |
| 2026-05-04 15:07 | 21.67604 | 39.16466 | 34 ft | 15 kts | 250° |
| 2026-05-04 15:07 | 21.67565 | 39.16347 | 34 ft | 19 kts | 251° |
| 2026-05-04 15:08 | 21.67497 | 39.16250 | 34 ft | 11 kts | 199° |
| 2026-05-04 15:08 | 21.67439 | 39.16263 | 34 ft | 10 kts | 160° |
| 2026-05-04 15:08 | 21.67308 | 39.16312 | 35 ft | 30 kts | 161° |
| 2026-05-04 15:08 | 21.67110 | 39.16302 | 36 ft | 28 kts | 180° |
| 2026-05-04 15:09 | 21.66932 | 39.16359 | 37 ft | 27 kts | 161° |
| 2026-05-04 15:09 | 21.66747 | 39.16425 | 38 ft | 29 kts | 160° |
| 2026-05-04 15:09 | 21.66550 | 39.16504 | 39 ft | 31 kts | 160° |
| 2026-05-04 15:10 | 21.66179 | 39.16602 | 36 ft | 20 kts | 228° |
| 2026-05-04 15:10 | 21.66162 | 39.16569 | 38 ft | 0 kts | 248° |
| 2026-05-04 15:10 | 21.66181 | 39.16458 | 37 ft | 7 kts | 329° |
| 2026-05-04 15:11 | 21.66225 | 39.16444 | 37 ft | 8 kts | 341° |
| 2026-05-04 15:11 | 21.66233 | 39.16441 | 37 ft | 0 kts | 340° |
| 2026-05-04 15:12 | 21.66503 | 39.16335 | 39 ft | 83 kts | 340° |
| 2026-05-04 15:12 | 21.67288 | 39.16026 | 35 ft | 153 kts | 340° |
| 2026-05-04 15:12 | 21.68429 | 39.15561 | 393 ft | 192 kts | 339° |
| 2026-05-04 15:12 | 21.69738 | 39.15045 | 1359 ft | 201 kts | 341° |
| 2026-05-04 15:13 | 21.71036 | 39.14550 | 2564 ft | 196 kts | 340° |
| 2026-05-04 15:13 | 21.72391 | 39.14085 | 3325 ft | 218 kts | 341° |
| 2026-05-04 15:13 | 21.73952 | 39.13557 | 3708 ft | 250 kts | 341° |
| 2026-05-04 15:13 | 21.75672 | 39.12899 | 4206 ft | 271 kts | 334° |
| 2026-05-04 15:14 | 21.77264 | 39.11757 | 4912 ft | 283 kts | 316° |
| 2026-05-04 15:14 | 21.78371 | 39.09976 | 5598 ft | 295 kts | 291° |
| 2026-05-04 15:14 | 21.78693 | 39.07797 | 6588 ft | 294 kts | 274° |
| 2026-05-04 15:14 | 21.78727 | 39.05611 | 7677 ft | 293 kts | 271° |
| 2026-05-04 15:15 | 21.78731 | 39.03400 | 8618 ft | 297 kts | 271° |
| 2026-05-04 15:15 | 21.78739 | 39.01178 | 9529 ft | 305 kts | 270° |
| 2026-05-04 15:15 | 21.78757 | 38.98889 | 10502 ft | 308 kts | 270° |
| 2026-05-04 15:16 | 21.78808 | 38.94181 | 12427 ft | 316 kts | 269° |
| 2026-05-04 15:16 | 21.78837 | 38.91815 | 13586 ft | 317 kts | 269° |
| 2026-05-04 15:16 | 21.78895 | 38.87047 | 15459 ft | 321 kts | 270° |
| 2026-05-04 15:17 | 21.78892 | 38.84627 | 16240 ft | 327 kts | 262° |
| 2026-05-04 15:17 | 21.76495 | 38.80571 | 17310 ft | 338 kts | 213° |
| 2026-05-04 15:17 | 21.74264 | 38.79713 | 17844 ft | 348 kts | 189° |
| 2026-05-04 15:18 | 21.71829 | 38.79921 | 18355 ft | 360 kts | 166° |
| 2026-05-04 15:18 | 21.69600 | 38.81192 | 18820 ft | 371 kts | 143° |
| 2026-05-04 15:18 | 21.67931 | 38.83321 | 19306 ft | 377 kts | 125° |
| 2026-05-04 15:19 | 21.64482 | 38.87529 | 20294 ft | 377 kts | 144° |
| 2026-05-04 15:19 | 21.62318 | 38.89110 | 20786 ft | 377 kts | 153° |
| 2026-05-04 15:19 | 21.57614 | 38.91659 | 21829 ft | 380 kts | 159° |
| 2026-05-04 15:20 | 21.55174 | 38.92777 | 22369 ft | 383 kts | 160° |
| 2026-05-04 15:20 | 21.52723 | 38.93842 | 22898 ft | 385 kts | 161° |
| 2026-05-04 15:20 | 21.50215 | 38.94899 | 23432 ft | 389 kts | 161° |
| 2026-05-04 15:20 | 21.47681 | 38.95958 | 23716 ft | 392 kts | 162° |
| 2026-05-04 15:21 | 21.45133 | 38.97005 | 23792 ft | 393 kts | 162° |
| 2026-05-04 15:21 | 21.42573 | 38.98050 | 23800 ft | 394 kts | 162° |
| 2026-05-04 15:21 | 21.37429 | 39.00144 | 23804 ft | 395 kts | 162° |
| 2026-05-04 15:22 | 21.34863 | 39.01189 | 23805 ft | 395 kts | 162° |
| 2026-05-04 15:22 | 21.32293 | 39.02235 | 23805 ft | 395 kts | 162° |
| 2026-05-04 15:22 | 21.27155 | 39.04322 | 23804 ft | 395 kts | 162° |
| 2026-05-04 15:23 | 21.24585 | 39.05367 | 23807 ft | 395 kts | 162° |
| 2026-05-04 15:23 | 21.22015 | 39.06412 | 23806 ft | 395 kts | 162° |
| 2026-05-04 15:23 | 21.19445 | 39.07456 | 23805 ft | 395 kts | 162° |
| 2026-05-04 15:23 | 21.16881 | 39.08506 | 23805 ft | 393 kts | 166° |
| 2026-05-04 15:24 | 21.11537 | 39.08793 | 23810 ft | 387 kts | 184° |
| 2026-05-04 15:24 | 21.06150 | 39.08728 | 23810 ft | 388 kts | 182° |
| 2026-05-04 15:25 | 21.03444 | 39.08762 | 23809 ft | 388 kts | 182° |
| 2026-05-04 15:25 | 21.00736 | 39.08819 | 23810 ft | 395 kts | 181° |
| 2026-05-04 15:25 | 20.97919 | 39.08887 | 23803 ft | 412 kts | 181° |
| 2026-05-04 15:26 | 20.91991 | 39.09057 | 23798 ft | 439 kts | 180° |
| 2026-05-04 15:26 | 20.88913 | 39.09156 | 23801 ft | 444 kts | 180° |
| 2026-05-04 15:26 | 20.82726 | 39.09362 | 23807 ft | 444 kts | 180° |
| 2026-05-04 15:27 | 20.79680 | 39.09462 | 23809 ft | 443 kts | 180° |
| 2026-05-04 15:27 | 20.73503 | 39.09663 | 23811 ft | 444 kts | 180° |
| 2026-05-04 15:28 | 20.67377 | 39.10417 | 23806 ft | 448 kts | 163° |
| 2026-05-04 15:28 | 20.64470 | 39.11660 | 23808 ft | 451 kts | 158° |
| 2026-05-04 15:28 | 20.58817 | 39.14593 | 23809 ft | 452 kts | 156° |
| 2026-05-04 15:29 | 20.55976 | 39.16035 | 23812 ft | 452 kts | 157° |
| 2026-05-04 15:30 | 20.44463 | 39.21268 | 23813 ft | 451 kts | 160° |
| 2026-05-04 15:30 | 20.36227 | 39.26151 | 23812 ft | 454 kts | 147° |
| 2026-05-04 15:31 | 20.31119 | 39.30138 | 23810 ft | 455 kts | 144° |
| 2026-05-04 15:31 | 20.28591 | 39.32179 | 23810 ft | 455 kts | 144° |
| 2026-05-04 15:32 | 20.21286 | 39.38656 | 23813 ft | 458 kts | 135° |
| 2026-05-04 15:32 | 20.17043 | 39.43665 | 23809 ft | 459 kts | 133° |
| 2026-05-04 15:33 | 20.12913 | 39.48859 | 23810 ft | 459 kts | 131° |
| 2026-05-04 15:34 | 20.06753 | 39.56653 | 23804 ft | 459 kts | 132° |
| 2026-05-04 15:34 | 20.04693 | 39.59242 | 23802 ft | 459 kts | 132° |
| 2026-05-04 15:34 | 20.00567 | 39.64409 | 23804 ft | 458 kts | 132° |
| 2026-05-04 15:35 | 19.96444 | 39.69562 | 23801 ft | 457 kts | 132° |
| 2026-05-04 15:35 | 19.94381 | 39.72137 | 23799 ft | 458 kts | 132° |
| 2026-05-04 15:35 | 19.92319 | 39.74712 | 23798 ft | 458 kts | 132° |
| 2026-05-04 15:36 | 19.88192 | 39.79863 | 23799 ft | 457 kts | 132° |
| 2026-05-04 15:36 | 19.86132 | 39.82432 | 23797 ft | 457 kts | 132° |
| 2026-05-04 15:36 | 19.84075 | 39.84997 | 23799 ft | 456 kts | 132° |
| 2026-05-04 15:37 | 19.82017 | 39.87561 | 23799 ft | 456 kts | 132° |
| 2026-05-04 15:37 | 19.79963 | 39.90120 | 23799 ft | 455 kts | 132° |
| 2026-05-04 15:37 | 19.77907 | 39.92678 | 23799 ft | 455 kts | 132° |
| 2026-05-04 15:37 | 19.75853 | 39.95235 | 23799 ft | 455 kts | 132° |
| 2026-05-04 15:38 | 19.73796 | 39.97793 | 23800 ft | 455 kts | 132° |
| 2026-05-04 15:38 | 19.71738 | 40.00353 | 23802 ft | 455 kts | 132° |
| 2026-05-04 15:38 | 19.69683 | 40.02907 | 23801 ft | 455 kts | 132° |
| 2026-05-04 15:38 | 19.67626 | 40.05462 | 23798 ft | 455 kts | 132° |
| 2026-05-04 15:39 | 19.65575 | 40.08010 | 23799 ft | 454 kts | 132° |
| 2026-05-04 15:39 | 19.64217 | 40.09696 | 23804 ft | 454 kts | 132° |
| 2026-05-04 15:39 | 19.60109 | 40.14793 | 23802 ft | 454 kts | 132° |
| 2026-05-04 15:40 | 19.58055 | 40.17339 | 23801 ft | 455 kts | 132° |
| 2026-05-04 15:40 | 19.56000 | 40.19886 | 23801 ft | 455 kts | 132° |
| 2026-05-04 15:40 | 19.53945 | 40.22433 | 23804 ft | 454 kts | 132° |
| 2026-05-04 15:40 | 19.51887 | 40.24981 | 23805 ft | 454 kts | 132° |
| 2026-05-04 15:41 | 19.49830 | 40.27527 | 23805 ft | 455 kts | 132° |
| 2026-05-04 15:41 | 19.47773 | 40.30072 | 23806 ft | 455 kts | 132° |
| 2026-05-04 15:41 | 19.45713 | 40.32620 | 23807 ft | 455 kts | 132° |
| 2026-05-04 15:41 | 19.43652 | 40.35168 | 23807 ft | 455 kts | 132° |
| 2026-05-04 15:42 | 19.41595 | 40.37710 | 23805 ft | 455 kts | 132° |
| 2026-05-04 15:42 | 19.39535 | 40.40255 | 23810 ft | 455 kts | 132° |
| 2026-05-04 15:42 | 19.37475 | 40.42798 | 23809 ft | 455 kts | 132° |
| 2026-05-04 15:42 | 19.35414 | 40.45341 | 23810 ft | 455 kts | 132° |
| 2026-05-04 15:43 | 19.33353 | 40.47885 | 23815 ft | 455 kts | 132° |
| 2026-05-04 15:43 | 19.31292 | 40.50426 | 23815 ft | 455 kts | 132° |
| 2026-05-04 15:43 | 19.29228 | 40.52970 | 23815 ft | 456 kts | 132° |
| 2026-05-04 15:43 | 19.27163 | 40.55514 | 23815 ft | 456 kts | 132° |
| 2026-05-04 15:44 | 19.25094 | 40.58062 | 23815 ft | 456 kts | 132° |
| 2026-05-04 15:44 | 19.23028 | 40.60605 | 23815 ft | 456 kts | 132° |
| 2026-05-04 15:44 | 19.20962 | 40.63148 | 23815 ft | 456 kts | 132° |
| 2026-05-04 15:44 | 19.18895 | 40.65690 | 23814 ft | 456 kts | 132° |
| 2026-05-04 15:45 | 19.16828 | 40.68231 | 23816 ft | 456 kts | 132° |
| 2026-05-04 15:45 | 19.14763 | 40.70769 | 23816 ft | 456 kts | 132° |
| 2026-05-04 15:45 | 19.12695 | 40.73309 | 23817 ft | 456 kts | 132° |
| 2026-05-04 15:45 | 19.10628 | 40.75848 | 23819 ft | 456 kts | 132° |
| 2026-05-04 15:46 | 19.08560 | 40.78386 | 23820 ft | 456 kts | 132° |
| 2026-05-04 15:46 | 19.06490 | 40.80926 | 23818 ft | 456 kts | 132° |
| 2026-05-04 15:46 | 19.04421 | 40.83463 | 23819 ft | 456 kts | 132° |
| 2026-05-04 15:46 | 19.02349 | 40.86003 | 23817 ft | 456 kts | 132° |
| 2026-05-04 15:47 | 19.00281 | 40.88537 | 23817 ft | 456 kts | 132° |
| 2026-05-04 15:47 | 18.98211 | 40.91072 | 23818 ft | 456 kts | 132° |
| 2026-05-04 15:47 | 18.96167 | 40.93575 | 23795 ft | 455 kts | 132° |
| 2026-05-04 15:47 | 18.94085 | 40.96123 | 23302 ft | 449 kts | 132° |
| 2026-05-04 15:48 | 18.92062 | 40.98600 | 22743 ft | 439 kts | 132° |
| 2026-05-04 15:48 | 18.90105 | 41.00996 | 22460 ft | 423 kts | 132° |
| 2026-05-04 15:48 | 18.86396 | 41.05533 | 22000 ft | 393 kts | 132° |
| 2026-05-04 15:49 | 18.84637 | 41.07684 | 21797 ft | 380 kts | 132° |
| 2026-05-04 15:49 | 18.82940 | 41.09756 | 21617 ft | 367 kts | 132° |
| 2026-05-04 15:49 | 18.81296 | 41.11761 | 21456 ft | 355 kts | 132° |
| 2026-05-04 15:49 | 18.79705 | 41.13703 | 21310 ft | 344 kts | 132° |
| 2026-05-04 15:50 | 18.78169 | 41.15585 | 21155 ft | 333 kts | 130° |
| 2026-05-04 15:50 | 18.76940 | 41.17614 | 21014 ft | 324 kts | 118° |
| 2026-05-04 15:50 | 18.76010 | 41.19756 | 20801 ft | 319 kts | 113° |
| 2026-05-04 15:50 | 18.75236 | 41.21932 | 20498 ft | 316 kts | 110° |
| 2026-05-04 15:51 | 18.74527 | 41.24121 | 20184 ft | 314 kts | 109° |
| 2026-05-04 15:51 | 18.73834 | 41.26295 | 19869 ft | 312 kts | 109° |
| 2026-05-04 15:51 | 18.73140 | 41.28427 | 19534 ft | 311 kts | 110° |
| 2026-05-04 15:51 | 18.72409 | 41.30606 | 19208 ft | 310 kts | 110° |
| 2026-05-04 15:52 | 18.71686 | 41.32706 | 18907 ft | 308 kts | 110° |
| 2026-05-04 15:52 | 18.70948 | 41.34814 | 18627 ft | 306 kts | 111° |
| 2026-05-04 15:52 | 18.70206 | 41.36911 | 18312 ft | 304 kts | 111° |
| 2026-05-04 15:52 | 18.69464 | 41.39001 | 17938 ft | 304 kts | 111° |
| 2026-05-04 15:53 | 18.68725 | 41.41077 | 17621 ft | 301 kts | 111° |
| 2026-05-04 15:53 | 18.67992 | 41.43137 | 17306 ft | 298 kts | 111° |
| 2026-05-04 15:53 | 18.67265 | 41.45182 | 16955 ft | 298 kts | 110° |
| 2026-05-04 15:53 | 18.66540 | 41.47224 | 16603 ft | 296 kts | 110° |
| 2026-05-04 15:54 | 18.65914 | 41.48986 | 16302 ft | 295 kts | 110° |
| 2026-05-04 15:54 | 18.65198 | 41.51004 | 15987 ft | 293 kts | 110° |
| 2026-05-04 15:54 | 18.64488 | 41.53005 | 15696 ft | 290 kts | 110° |
| 2026-05-04 15:54 | 18.63782 | 41.54998 | 15344 ft | 290 kts | 110° |
| 2026-05-04 15:55 | 18.63077 | 41.56988 | 14988 ft | 289 kts | 110° |
| 2026-05-04 15:55 | 18.62377 | 41.58964 | 14689 ft | 287 kts | 110° |
| 2026-05-04 15:55 | 18.61680 | 41.60928 | 14391 ft | 285 kts | 110° |
| 2026-05-04 15:55 | 18.60987 | 41.62882 | 14062 ft | 284 kts | 110° |
| 2026-05-04 15:56 | 18.60296 | 41.64830 | 13719 ft | 284 kts | 109° |
| 2026-05-04 15:56 | 18.59605 | 41.66778 | 13352 ft | 283 kts | 110° |
| 2026-05-04 15:56 | 18.58919 | 41.68711 | 13039 ft | 280 kts | 110° |
| 2026-05-04 15:56 | 18.58240 | 41.70624 | 12757 ft | 277 kts | 110° |
| 2026-05-04 15:57 | 18.57563 | 41.72528 | 12657 ft | 278 kts | 110° |
| 2026-05-04 15:57 | 18.56885 | 41.74435 | 12649 ft | 279 kts | 110° |
| 2026-05-04 15:57 | 18.56205 | 41.76349 | 12649 ft | 278 kts | 110° |
| 2026-05-04 15:57 | 18.55526 | 41.78255 | 12671 ft | 278 kts | 110° |
| 2026-05-04 15:58 | 18.54848 | 41.80159 | 12673 ft | 277 kts | 110° |
| 2026-05-04 15:58 | 18.54171 | 41.82061 | 12670 ft | 277 kts | 110° |
| 2026-05-04 15:58 | 18.53494 | 41.83963 | 12676 ft | 278 kts | 110° |
| 2026-05-04 15:58 | 18.52816 | 41.85867 | 12670 ft | 277 kts | 110° |
| 2026-05-04 15:59 | 18.52139 | 41.87768 | 12703 ft | 277 kts | 110° |
| 2026-05-04 15:59 | 18.51461 | 41.89670 | 12704 ft | 278 kts | 110° |
| 2026-05-04 15:59 | 18.50736 | 41.91697 | 12694 ft | 315 kts | 110° |
| 2026-05-04 15:59 | 18.49933 | 41.93939 | 12685 ft | 335 kts | 110° |
| 2026-05-04 16:00 | 18.49109 | 41.96250 | 12728 ft | 338 kts | 110° |
| 2026-05-04 16:00 | 18.48283 | 41.98571 | 12738 ft | 338 kts | 110° |
| 2026-05-04 16:00 | 18.47461 | 42.00888 | 12736 ft | 338 kts | 109° |
| 2026-05-04 16:00 | 18.46750 | 42.03246 | 12775 ft | 337 kts | 107° |
| 2026-05-04 16:01 | 18.46067 | 42.05606 | 12775 ft | 337 kts | 107° |
| 2026-05-04 16:01 | 18.45396 | 42.07967 | 12771 ft | 337 kts | 106° |
| 2026-05-04 16:01 | 18.44730 | 42.10333 | 12773 ft | 337 kts | 106° |
| 2026-05-04 16:01 | 18.44069 | 42.12700 | 12803 ft | 337 kts | 106° |
| 2026-05-04 16:02 | 18.43408 | 42.15070 | 12803 ft | 337 kts | 106° |
| 2026-05-04 16:02 | 18.42744 | 42.17454 | 12805 ft | 345 kts | 106° |
| 2026-05-04 16:02 | 18.41383 | 42.22345 | 12839 ft | 353 kts | 106° |
| 2026-05-04 16:03 | 18.40684 | 42.24858 | 12840 ft | 353 kts | 106° |
| 2026-05-04 16:03 | 18.40005 | 42.27299 | 12844 ft | 352 kts | 106° |
| 2026-05-04 16:03 | 18.39314 | 42.29779 | 12882 ft | 353 kts | 106° |
| 2026-05-04 16:03 | 18.38615 | 42.32289 | 12815 ft | 353 kts | 106° |
| 2026-05-04 16:04 | 18.37934 | 42.34731 | 12215 ft | 353 kts | 106° |
| 2026-05-04 16:04 | 18.36588 | 42.39559 | 11572 ft | 330 kts | 106° |
| 2026-05-04 16:04 | 18.35956 | 42.41826 | 11285 ft | 318 kts | 106° |
| 2026-05-04 16:05 | 18.35337 | 42.44040 | 10880 ft | 313 kts | 106° |
| 2026-05-04 16:05 | 18.34727 | 42.46221 | 10490 ft | 308 kts | 106° |
| 2026-05-04 16:05 | 18.33542 | 42.50456 | 9935 ft | 291 kts | 106° |
| 2026-05-04 16:06 | 18.32982 | 42.52455 | 9798 ft | 279 kts | 106° |
| 2026-05-04 16:06 | 18.30850 | 42.56927 | 9517 ft | 238 kts | 128° |
| 2026-05-04 16:07 | 18.29522 | 42.58624 | 9428 ft | 214 kts | 129° |
| 2026-05-04 16:07 | 18.26731 | 42.62195 | 7508 ft | 224 kts | 128° |
| 2026-05-04 16:08 | 18.25763 | 42.63445 | 7071 ft | 211 kts | 130° |
| 2026-05-04 16:08 | 18.23835 | 42.65921 | 6871 ft | 43 kts | 128° |
| 2026-05-04 16:09 | 18.23595 | 42.65958 | 6872 ft | 13 kts | 229° |
| 2026-05-04 16:09 | 18.23588 | 42.65943 | 6870 ft | 0 kts | 257° |
| 2026-05-04 16:10 | 18.23594 | 42.65887 | 6869 ft | 5 kts | 266° |
| 2026-05-04 16:11 | 18.23560 | 42.65839 | 6871 ft | 0 kts | 225° |
| 2026-05-04 16:11 | 18.23557 | 42.65836 | 6869 ft | 0 kts | 225° |
| 2026-05-04 16:12 | 18.23566 | 42.65845 | 6873 ft | 2 kts | 225° |
| 2026-05-04 16:12 | 18.23569 | 42.65858 | 6874 ft | 2 kts | 185° |
| 2026-05-04 16:13 | 18.23547 | 42.65861 | 6873 ft | 0 kts | 170° |